Terminal Aerodrome Forecast
Issued by NWS Mt. Holly, NJ

Home | Current Version | Previous Version | Text Only | Print | Product List | Glossary On
Versions: 1 2 3 4 5 6 7 8 9 10 11 12 13
553
FTUS41 KPHI 260527
TAFRDG
TAF
KRDG 260527Z 2606/2706 VRB03KT P6SM SKC
      TEMPO 2609/2613 3SM BR SCT015
     FM261300 05005KT P6SM BKN250
     FM262000 05005KT P6SM SKC
     FM270200 VRB02KT P6SM SKC=

USA.gov is the U.S. government's official web portal to all federal, state and local government web resources and services.